sensor_id;sensor_type;location;lat;lon;timestamp;temperature;humidity
1524;DHT22;755;53.658;10.118;2023-02-12T00:09:02;6.60;99.90
1524;DHT22;755;53.658;10.118;2023-02-12T00:19:06;6.60;99.90
1524;DHT22;755;53.658;10.118;2023-02-12T00:29:10;6.60;99.90
1524;DHT22;755;53.658;10.118;2023-02-12T00:39:12;6.60;99.90
1524;DHT22;755;53.658;10.118;2023-02-12T00:49:16;6.60;99.90
1524;DHT22;755;53.658;10.118;2023-02-12T00:59:20;6.50;99.90
1524;DHT22;755;53.658;10.118;2023-02-12T01:09:23;6.50;99.90
1524;DHT22;755;53.658;10.118;2023-02-12T01:19:26;6.40;99.90
1524;DHT22;755;53.658;10.118;2023-02-12T01:29:30;6.40;99.90
1524;DHT22;755;53.658;10.118;2023-02-12T01:39:33;6.40;99.90
1524;DHT22;755;53.658;10.118;2023-02-12T01:49:39;6.40;99.90
1524;DHT22;755;53.658;10.118;2023-02-12T01:59:42;6.30;99.90
1524;DHT22;755;53.658;10.118;2023-02-12T02:09:47;6.30;99.90
1524;DHT22;755;53.658;10.118;2023-02-12T02:30:50;6.30;99.90
1524;DHT22;755;53.658;10.118;2023-02-12T02:41:02;6.30;99.90
1524;DHT22;755;53.658;10.118;2023-02-12T02:51:11;6.30;99.90
1524;DHT22;755;53.658;10.118;2023-02-12T03:01:17;6.30;99.90
1524;DHT22;755;53.658;10.118;2023-02-12T03:11:25;6.30;99.90
1524;DHT22;755;53.658;10.118;2023-02-12T03:21:32;6.30;99.90
1524;DHT22;755;53.658;10.118;2023-02-12T03:31:49;6.30;99.90
1524;DHT22;755;53.658;10.118;2023-02-12T03:41:58;6.20;99.90
1524;DHT22;755;53.658;10.118;2023-02-12T03:52:03;6.30;99.90
1524;DHT22;755;53.658;10.118;2023-02-12T04:02:07;6.30;99.90
1524;DHT22;755;53.658;10.118;2023-02-12T04:12:38;6.20;99.90
1524;DHT22;755;53.658;10.118;2023-02-12T04:22:48;6.20;99.90
1524;DHT22;755;53.658;10.118;2023-02-12T04:32:59;6.20;99.90
1524;DHT22;755;53.658;10.118;2023-02-12T04:43:03;6.20;99.90
1524;DHT22;755;53.658;10.118;2023-02-12T04:53:07;6.20;99.90
1524;DHT22;755;53.658;10.118;2023-02-12T05:03:10;6.30;99.90
1524;DHT22;755;53.658;10.118;2023-02-12T05:13:14;6.30;99.90
1524;DHT22;755;53.658;10.118;2023-02-12T05:23:16;6.30;99.90
1524;DHT22;755;53.658;10.118;2023-02-12T05:33:20;6.30;99.90
1524;DHT22;755;53.658;10.118;2023-02-12T05:43:23;6.30;99.90
1524;DHT22;755;53.658;10.118;2023-02-12T05:53:27;6.40;99.90
1524;DHT22;755;53.658;10.118;2023-02-12T06:03:29;6.40;99.90
1524;DHT22;755;53.658;10.118;2023-02-12T06:13:33;6.40;99.90
1524;DHT22;755;53.658;10.118;2023-02-12T06:23:36;6.50;99.90
1524;DHT22;755;53.658;10.118;2023-02-12T06:33:39;6.50;99.90
1524;DHT22;755;53.658;10.118;2023-02-12T06:43:43;6.40;99.90
1524;DHT22;755;53.658;10.118;2023-02-12T06:53:47;6.50;99.90
1524;DHT22;755;53.658;10.118;2023-02-12T07:03:51;6.50;99.90
1524;DHT22;755;53.658;10.118;2023-02-12T07:13:55;6.60;99.90
1524;DHT22;755;53.658;10.118;2023-02-12T07:23:58;6.60;99.90
1524;DHT22;755;53.658;10.118;2023-02-12T07:34:02;6.70;99.90
1524;DHT22;755;53.658;10.118;2023-02-12T07:44:07;6.80;99.90
1524;DHT22;755;53.658;10.118;2023-02-12T08:16:00;6.90;99.90
1524;DHT22;755;53.658;10.118;2023-02-12T08:26:07;7.00;99.90
1524;DHT22;755;53.658;10.118;2023-02-12T08:36:38;7.20;99.90
1524;DHT22;755;53.658;10.118;2023-02-12T08:46:44;7.20;99.90
1524;DHT22;755;53.658;10.118;2023-02-12T08:56:49;7.20;99.90
1524;DHT22;755;53.658;10.118;2023-02-12T09:06:51;7.30;99.90
1524;DHT22;755;53.658;10.118;2023-02-12T09:16:55;7.40;99.90
1524;DHT22;755;53.658;10.118;2023-02-12T09:26:57;7.50;99.90
1524;DHT22;755;53.658;10.118;2023-02-12T09:37:01;7.50;99.90
1524;DHT22;755;53.658;10.118;2023-02-12T09:47:08;7.50;99.90
1524;DHT22;755;53.658;10.118;2023-02-12T09:57:22;7.60;99.90
1524;DHT22;755;53.658;10.118;2023-02-12T10:07:39;7.80;99.90
1524;DHT22;755;53.658;10.118;2023-02-12T10:17:51;7.70;99.90
1524;DHT22;755;53.658;10.118;2023-02-12T10:28:00;7.70;99.90
1524;DHT22;755;53.658;10.118;2023-02-12T10:38:10;7.70;99.90
1524;DHT22;755;53.658;10.118;2023-02-12T10:48:18;7.80;99.90
1524;DHT22;755;53.658;10.118;2023-02-12T10:58:23;7.80;99.90
1524;DHT22;755;53.658;10.118;2023-02-12T11:08:29;7.90;99.90
1524;DHT22;755;53.658;10.118;2023-02-12T11:18:34;7.90;99.90
1524;DHT22;755;53.658;10.118;2023-02-12T11:28:37;7.90;99.90
1524;DHT22;755;53.658;10.118;2023-02-12T11:38:50;7.90;99.90
1524;DHT22;755;53.658;10.118;2023-02-12T11:48:55;8.00;99.90
1524;DHT22;755;53.658;10.118;2023-02-12T11:59:11;8.10;99.90
1524;DHT22;755;53.658;10.118;2023-02-12T12:09:23;8.00;99.90
1524;DHT22;755;53.658;10.118;2023-02-12T12:19:33;8.10;99.90
1524;DHT22;755;53.658;10.118;2023-02-12T12:29:58;8.10;99.90
1524;DHT22;755;53.658;10.118;2023-02-12T12:40:20;8.20;99.90
1524;DHT22;755;53.658;10.118;2023-02-12T12:50:48;8.10;99.90
1524;DHT22;755;53.658;10.118;2023-02-12T13:01:09;8.20;99.90
1524;DHT22;755;53.658;10.118;2023-02-12T13:11:26;8.30;99.90
1524;DHT22;755;53.658;10.118;2023-02-12T13:21:39;8.40;99.90
1524;DHT22;755;53.658;10.118;2023-02-12T13:31:48;8.40;99.90
1524;DHT22;755;53.658;10.118;2023-02-12T13:42:02;8.30;99.90
1524;DHT22;755;53.658;10.118;2023-02-12T13:52:09;8.30;99.90
1524;DHT22;755;53.658;10.118;2023-02-12T14:02:45;8.30;99.90
1524;DHT22;755;53.658;10.118;2023-02-12T14:12:49;8.20;99.90
1524;DHT22;755;53.658;10.118;2023-02-12T14:23:02;8.20;99.90
1524;DHT22;755;53.658;10.118;2023-02-12T14:33:20;8.00;99.90
1524;DHT22;755;53.658;10.118;2023-02-12T14:43:29;8.20;99.90
1524;DHT22;755;53.658;10.118;2023-02-12T14:53:34;8.20;99.90
1524;DHT22;755;53.658;10.118;2023-02-12T15:03:40;8.10;99.90
1524;DHT22;755;53.658;10.118;2023-02-12T15:13:46;8.00;99.90
1524;DHT22;755;53.658;10.118;2023-02-12T15:24:01;8.00;99.90
1524;DHT22;755;53.658;10.118;2023-02-12T15:34:03;7.90;99.90
1524;DHT22;755;53.658;10.118;2023-02-12T15:44:24;7.90;99.90
1524;DHT22;755;53.658;10.118;2023-02-12T15:54:26;7.80;99.90
1524;DHT22;755;53.658;10.118;2023-02-12T16:04:32;7.70;99.90
1524;DHT22;755;53.658;10.118;2023-02-12T16:14:40;7.60;99.90
1524;DHT22;755;53.658;10.118;2023-02-12T16:24:47;7.50;99.90
1524;DHT22;755;53.658;10.118;2023-02-12T16:34:58;7.50;99.90
1524;DHT22;755;53.658;10.118;2023-02-12T16:45:32;7.50;99.90
1524;DHT22;755;53.658;10.118;2023-02-12T16:55:34;7.40;99.90
1524;DHT22;755;53.658;10.118;2023-02-12T17:05:38;7.40;99.90
1524;DHT22;755;53.658;10.118;2023-02-12T17:15:45;7.40;99.90
1524;DHT22;755;53.658;10.118;2023-02-12T17:25:51;7.40;99.90
1524;DHT22;755;53.658;10.118;2023-02-12T17:35:53;7.30;99.90
1524;DHT22;755;53.658;10.118;2023-02-12T17:45:57;7.30;99.90
1524;DHT22;755;53.658;10.118;2023-02-12T17:56:00;7.30;99.90
1524;DHT22;755;53.658;10.118;2023-02-12T18:06:04;7.30;99.90
1524;DHT22;755;53.658;10.118;2023-02-12T18:16:07;7.30;99.90
1524;DHT22;755;53.658;10.118;2023-02-12T18:26:13;7.20;99.90
1524;DHT22;755;53.658;10.118;2023-02-12T18:36:17;7.30;99.90
1524;DHT22;755;53.658;10.118;2023-02-12T18:46:22;7.30;99.90
1524;DHT22;755;53.658;10.118;2023-02-12T18:56:24;7.30;99.90
1524;DHT22;755;53.658;10.118;2023-02-12T19:06:29;7.20;99.90
1524;DHT22;755;53.658;10.118;2023-02-12T19:16:31;7.20;99.90
1524;DHT22;755;53.658;10.118;2023-02-12T19:26:35;7.20;99.90
1524;DHT22;755;53.658;10.118;2023-02-12T19:36:37;7.20;99.90
1524;DHT22;755;53.658;10.118;2023-02-12T19:46:40;7.10;99.90
1524;DHT22;755;53.658;10.118;2023-02-12T19:56:43;7.10;99.90
1524;DHT22;755;53.658;10.118;2023-02-12T20:06:47;7.10;99.90
1524;DHT22;755;53.658;10.118;2023-02-12T20:16:53;7.10;99.90
1524;DHT22;755;53.658;10.118;2023-02-12T20:26:57;7.00;99.90
1524;DHT22;755;53.658;10.118;2023-02-12T20:37:00;7.10;99.90
1524;DHT22;755;53.658;10.118;2023-02-12T20:47:03;7.10;99.90
1524;DHT22;755;53.658;10.118;2023-02-12T20:57:05;7.00;99.90
1524;DHT22;755;53.658;10.118;2023-02-12T21:07:08;7.00;99.90
1524;DHT22;755;53.658;10.118;2023-02-12T21:17:10;7.00;99.90
1524;DHT22;755;53.658;10.118;2023-02-12T21:27:13;7.00;99.90
1524;DHT22;755;53.658;10.118;2023-02-12T21:37:15;7.00;99.90
1524;DHT22;755;53.658;10.118;2023-02-12T21:47:19;6.90;99.90
1524;DHT22;755;53.658;10.118;2023-02-12T21:57:21;6.90;99.90
1524;DHT22;755;53.658;10.118;2023-02-12T22:07:24;7.00;99.90
1524;DHT22;755;53.658;10.118;2023-02-12T22:17:26;6.90;99.90
1524;DHT22;755;53.658;10.118;2023-02-12T22:27:31;6.80;99.90
1524;DHT22;755;53.658;10.118;2023-02-12T22:37:33;6.80;99.90
1524;DHT22;755;53.658;10.118;2023-02-12T22:47:36;6.80;99.90
1524;DHT22;755;53.658;10.118;2023-02-12T22:57:39;6.70;99.90
1524;DHT22;755;53.658;10.118;2023-02-12T23:07:42;6.80;99.90
1524;DHT22;755;53.658;10.118;2023-02-12T23:17:44;6.70;99.90
1524;DHT22;755;53.658;10.118;2023-02-12T23:27:47;6.70;99.90
1524;DHT22;755;53.658;10.118;2023-02-12T23:37:49;6.70;99.90
1524;DHT22;755;53.658;10.118;2023-02-12T23:47:53;6.60;99.90
1524;DHT22;755;53.658;10.118;2023-02-12T23:57:57;6.60;99.90
